sensor_id;sensor_type;location;lat;lon;timestamp;P1;durP1;ratioP1;P2;durP2;ratioP2
12038;SDS011;6080;48.818;9.526;2022-12-29T07:21:49;9.10;;;8.50;;
12038;SDS011;6080;48.818;9.526;2022-12-29T07:24:15;8.70;;;8.03;;
12038;SDS011;6080;48.818;9.526;2022-12-29T07:26:40;8.23;;;7.80;;
12038;SDS011;6080;48.818;9.526;2022-12-29T07:29:06;14.63;;;13.73;;
12038;SDS011;6080;48.818;9.526;2022-12-29T07:31:32;14.63;;;13.53;;
12038;SDS011;6080;48.818;9.526;2022-12-29T07:33:58;13.53;;;12.53;;
12038;SDS011;6080;48.818;9.526;2022-12-29T07:36:24;12.40;;;11.40;;
12038;SDS011;6080;48.818;9.526;2022-12-29T07:38:49;13.10;;;12.47;;
12038;SDS011;6080;48.818;9.526;2022-12-29T07:41:15;15.43;;;14.63;;
12038;SDS011;6080;48.818;9.526;2022-12-29T07:43:41;15.63;;;14.33;;
12038;SDS011;6080;48.818;9.526;2022-12-29T07:46:07;15.70;;;14.70;;
12038;SDS011;6080;48.818;9.526;2022-12-29T07:48:34;25.43;;;22.93;;
12038;SDS011;6080;48.818;9.526;2022-12-29T07:51:01;22.30;;;20.30;;
12038;SDS011;6080;48.818;9.526;2022-12-29T07:53:26;14.37;;;13.40;;
12038;SDS011;6080;48.818;9.526;2022-12-29T07:55:52;14.87;;;12.87;;
12038;SDS011;6080;48.818;9.526;2022-12-29T07:58:18;12.33;;;11.37;;
12038;SDS011;6080;48.818;9.526;2022-12-29T08:00:43;11.80;;;11.00;;
12038;SDS011;6080;48.818;9.526;2022-12-29T08:03:09;11.53;;;10.57;;
12038;SDS011;6080;48.818;9.526;2022-12-29T08:05:35;9.40;;;8.53;;
12038;SDS011;6080;48.818;9.526;2022-12-29T08:08:01;9.00;;;8.37;;
12038;SDS011;6080;48.818;9.526;2022-12-29T08:10:27;9.43;;;8.73;;
12038;SDS011;6080;48.818;9.526;2022-12-29T08:12:52;8.27;;;7.77;;
12038;SDS011;6080;48.818;9.526;2022-12-29T08:15:18;12.17;;;11.03;;
12038;SDS011;6080;48.818;9.526;2022-12-29T08:17:44;15.97;;;15.00;;
12038;SDS011;6080;48.818;9.526;2022-12-29T08:20:10;19.53;;;18.03;;
12038;SDS011;6080;48.818;9.526;2022-12-29T08:22:36;25.83;;;24.33;;
12038;SDS011;6080;48.818;9.526;2022-12-29T08:25:02;34.43;;;32.60;;
12038;SDS011;6080;48.818;9.526;2022-12-29T08:27:28;36.47;;;34.43;;
12038;SDS011;6080;48.818;9.526;2022-12-29T08:29:54;36.03;;;34.13;;
12038;SDS011;6080;48.818;9.526;2022-12-29T08:32:19;32.57;;;30.90;;
12038;SDS011;6080;48.818;9.526;2022-12-29T08:34:45;29.00;;;27.40;;
12038;SDS011;6080;48.818;9.526;2022-12-29T08:37:11;24.67;;;23.33;;
12038;SDS011;6080;48.818;9.526;2022-12-29T08:39:37;24.50;;;22.73;;
12038;SDS011;6080;48.818;9.526;2022-12-29T08:42:02;22.37;;;21.13;;
12038;SDS011;6080;48.818;9.526;2022-12-29T08:44:28;20.87;;;19.57;;
12038;SDS011;6080;48.818;9.526;2022-12-29T08:46:54;18.17;;;17.00;;
12038;SDS011;6080;48.818;9.526;2022-12-29T08:49:20;12.17;;;11.47;;
12038;SDS011;6080;48.818;9.526;2022-12-29T08:51:45;13.63;;;12.90;;
12038;SDS011;6080;48.818;9.526;2022-12-29T08:54:11;13.33;;;12.07;;
12038;SDS011;6080;48.818;9.526;2022-12-29T08:56:37;12.67;;;11.97;;
12038;SDS011;6080;48.818;9.526;2022-12-29T08:59:03;10.97;;;10.20;;
12038;SDS011;6080;48.818;9.526;2022-12-29T09:01:29;12.83;;;11.93;;
12038;SDS011;6080;48.818;9.526;2022-12-29T09:03:55;13.37;;;12.47;;
12038;SDS011;6080;48.818;9.526;2022-12-29T09:06:21;17.47;;;16.33;;
12038;SDS011;6080;48.818;9.526;2022-12-29T09:08:47;21.00;;;19.60;;
12038;SDS011;6080;48.818;9.526;2022-12-29T09:11:15;20.07;;;18.70;;
12038;SDS011;6080;48.818;9.526;2022-12-29T09:13:43;18.23;;;17.23;;
12038;SDS011;6080;48.818;9.526;2022-12-29T09:16:09;15.00;;;14.07;;
12038;SDS011;6080;48.818;9.526;2022-12-29T09:18:36;16.43;;;14.77;;
12038;SDS011;6080;48.818;9.526;2022-12-29T09:21:02;19.00;;;17.87;;
12038;SDS011;6080;48.818;9.526;2022-12-29T09:23:29;17.87;;;16.53;;
12038;SDS011;6080;48.818;9.526;2022-12-29T09:25:56;22.10;;;20.23;;
12038;SDS011;6080;48.818;9.526;2022-12-29T09:28:22;21.27;;;19.67;;
12038;SDS011;6080;48.818;9.526;2022-12-29T09:30:48;14.17;;;13.07;;
12038;SDS011;6080;48.818;9.526;2022-12-29T09:33:15;14.20;;;13.27;;
12038;SDS011;6080;48.818;9.526;2022-12-29T09:35:41;13.73;;;12.80;;
12038;SDS011;6080;48.818;9.526;2022-12-29T09:38:11;15.50;;;14.37;;
12038;SDS011;6080;48.818;9.526;2022-12-29T09:40:37;15.17;;;14.00;;
12038;SDS011;6080;48.818;9.526;2022-12-29T09:48:38;12.17;;;10.87;;
12038;SDS011;6080;48.818;9.526;2022-12-29T09:51:11;12.20;;;11.03;;
12038;SDS011;6080;48.818;9.526;2022-12-29T09:53:45;11.13;;;10.10;;
12038;SDS011;6080;48.818;9.526;2022-12-29T09:56:21;9.03;;;8.23;;
12038;SDS011;6080;48.818;9.526;2022-12-29T09:59:24;10.30;;;8.73;;
12038;SDS011;6080;48.818;9.526;2022-12-29T10:04:22;9.20;;;8.47;;
12038;SDS011;6080;48.818;9.526;2022-12-29T10:06:52;8.63;;;7.90;;
12038;SDS011;6080;48.818;9.526;2022-12-29T10:09:25;9.27;;;8.37;;
12038;SDS011;6080;48.818;9.526;2022-12-29T10:15:02;9.40;;;7.57;;
12038;SDS011;6080;48.818;9.526;2022-12-29T10:25:37;5.87;;;5.50;;
12038;SDS011;6080;48.818;9.526;2022-12-29T10:28:06;6.30;;;6.00;;
12038;SDS011;6080;48.818;9.526;2022-12-29T10:30:47;7.17;;;6.57;;
12038;SDS011;6080;48.818;9.526;2022-12-29T10:33:15;6.63;;;6.07;;
12038;SDS011;6080;48.818;9.526;2022-12-29T10:35:51;7.27;;;6.53;;
12038;SDS011;6080;48.818;9.526;2022-12-29T10:38:38;6.80;;;6.27;;
12038;SDS011;6080;48.818;9.526;2022-12-29T10:41:57;6.37;;;5.97;;
12038;SDS011;6080;48.818;9.526;2022-12-29T10:44:26;6.53;;;6.23;;
12038;SDS011;6080;48.818;9.526;2022-12-29T10:46:59;6.60;;;6.20;;
12038;SDS011;6080;48.818;9.526;2022-12-29T10:49:33;7.47;;;6.90;;
12038;SDS011;6080;48.818;9.526;2022-12-29T10:52:04;7.63;;;7.03;;
12038;SDS011;6080;48.818;9.526;2022-12-29T10:57:38;10.43;;;9.73;;
12038;SDS011;6080;48.818;9.526;2022-12-29T11:04:16;23.03;;;21.87;;
12038;SDS011;6080;48.818;9.526;2022-12-29T11:06:51;6.40;;;6.03;;
12038;SDS011;6080;48.818;9.526;2022-12-29T11:09:36;8.23;;;7.83;;
12038;SDS011;6080;48.818;9.526;2022-12-29T11:12:20;8.43;;;7.93;;
12038;SDS011;6080;48.818;9.526;2022-12-29T11:15:00;4.67;;;3.73;;
12038;SDS011;6080;48.818;9.526;2022-12-29T11:17:42;5.73;;;5.33;;
12038;SDS011;6080;48.818;9.526;2022-12-29T11:20:26;8.43;;;7.93;;
12038;SDS011;6080;48.818;9.526;2022-12-29T11:22:54;5.67;;;5.37;;
12038;SDS011;6080;48.818;9.526;2022-12-29T11:25:20;7.37;;;6.87;;
12038;SDS011;6080;48.818;9.526;2022-12-29T11:27:56;10.20;;;9.67;;
12038;SDS011;6080;48.818;9.526;2022-12-29T11:30:29;7.77;;;7.33;;
12038;SDS011;6080;48.818;9.526;2022-12-29T11:32:56;5.50;;;5.20;;
12038;SDS011;6080;48.818;9.526;2022-12-29T11:35:36;4.80;;;4.50;;
12038;SDS011;6080;48.818;9.526;2022-12-29T11:38:24;5.73;;;5.43;;
12038;SDS011;6080;48.818;9.526;2022-12-29T11:40:57;16.17;;;15.23;;
12038;SDS011;6080;48.818;9.526;2022-12-29T11:43:38;16.47;;;15.57;;
12038;SDS011;6080;48.818;9.526;2022-12-29T11:46:06;24.97;;;23.57;;
12038;SDS011;6080;48.818;9.526;2022-12-29T11:48:43;19.30;;;18.20;;
12038;SDS011;6080;48.818;9.526;2022-12-29T11:51:09;13.67;;;12.67;;
12038;SDS011;6080;48.818;9.526;2022-12-29T11:53:42;9.23;;;8.83;;
12038;SDS011;6080;48.818;9.526;2022-12-29T11:56:12;10.27;;;9.67;;
12038;SDS011;6080;48.818;9.526;2022-12-29T11:58:40;9.50;;;8.93;;
12038;SDS011;6080;48.818;9.526;2022-12-29T12:01:07;9.93;;;9.43;;
12038;SDS011;6080;48.818;9.526;2022-12-29T12:03:45;43.53;;;41.13;;
12038;SDS011;6080;48.818;9.526;2022-12-29T12:06:32;75.20;;;71.33;;
12038;SDS011;6080;48.818;9.526;2022-12-29T12:09:05;87.97;;;83.40;;
12038;SDS011;6080;48.818;9.526;2022-12-29T12:11:39;77.23;;;73.03;;
12038;SDS011;6080;48.818;9.526;2022-12-29T12:14:21;75.70;;;71.80;;
12038;SDS011;6080;48.818;9.526;2022-12-29T12:17:05;77.03;;;73.13;;
12038;SDS011;6080;48.818;9.526;2022-12-29T12:25:02;34.37;;;32.67;;
12038;SDS011;6080;48.818;9.526;2022-12-29T12:27:53;26.73;;;25.40;;
12038;SDS011;6080;48.818;9.526;2022-12-29T12:30:36;8.23;;;7.63;;
12038;SDS011;6080;48.818;9.526;2022-12-29T12:38:51;7.60;;;7.10;;
12038;SDS011;6080;48.818;9.526;2022-12-29T12:47:15;6.00;;;5.70;;
12038;SDS011;6080;48.818;9.526;2022-12-29T12:50:13;6.83;;;6.47;;
12038;SDS011;6080;48.818;9.526;2022-12-29T12:55:58;6.37;;;6.07;;
12038;SDS011;6080;48.818;9.526;2022-12-29T13:01:29;6.30;;;6.00;;
12038;SDS011;6080;48.818;9.526;2022-12-29T13:04:18;7.07;;;6.67;;
12038;SDS011;6080;48.818;9.526;2022-12-29T13:07:03;5.97;;;5.67;;
12038;SDS011;6080;48.818;9.526;2022-12-29T13:12:47;5.37;;;4.97;;
12038;SDS011;6080;48.818;9.526;2022-12-29T13:15:46;5.00;;;4.70;;
12038;SDS011;6080;48.818;9.526;2022-12-29T13:21:32;4.53;;;4.23;;
12038;SDS011;6080;48.818;9.526;2022-12-29T13:26:48;4.63;;;4.33;;
12038;SDS011;6080;48.818;9.526;2022-12-29T13:29:36;4.77;;;4.47;;
12038;SDS011;6080;48.818;9.526;2022-12-29T13:32:21;5.30;;;4.80;;
12038;SDS011;6080;48.818;9.526;2022-12-29T13:37:53;4.20;;;4.00;;
12038;SDS011;6080;48.818;9.526;2022-12-29T13:40:25;5.63;;;5.23;;
12038;SDS011;6080;48.818;9.526;2022-12-29T13:42:59;5.87;;;5.40;;
12038;SDS011;6080;48.818;9.526;2022-12-29T13:45:28;5.30;;;5.00;;
12038;SDS011;6080;48.818;9.526;2022-12-29T13:48:02;6.40;;;6.10;;
12038;SDS011;6080;48.818;9.526;2022-12-29T13:50:42;5.43;;;4.63;;
12038;SDS011;6080;48.818;9.526;2022-12-29T13:58:35;5.07;;;4.77;;
12038;SDS011;6080;48.818;9.526;2022-12-29T14:03:47;4.67;;;4.47;;
12038;SDS011;6080;48.818;9.526;2022-12-29T14:08:52;5.00;;;4.60;;
12038;SDS011;6080;48.818;9.526;2022-12-29T14:11:21;4.40;;;4.03;;
12038;SDS011;6080;48.818;9.526;2022-12-29T14:13:53;5.10;;;4.57;;
12038;SDS011;6080;48.818;9.526;2022-12-29T14:16:27;4.90;;;4.50;;
12038;SDS011;6080;48.818;9.526;2022-12-29T14:19:03;5.63;;;5.20;;
12038;SDS011;6080;48.818;9.526;2022-12-29T14:21:41;5.13;;;4.73;;
12038;SDS011;6080;48.818;9.526;2022-12-29T14:27:00;5.57;;;5.17;;
12038;SDS011;6080;48.818;9.526;2022-12-29T14:29:47;5.10;;;4.80;;
12038;SDS011;6080;48.818;9.526;2022-12-29T14:34:52;5.20;;;4.90;;
12038;SDS011;6080;48.818;9.526;2022-12-29T14:37:25;7.63;;;7.03;;
12038;SDS011;6080;48.818;9.526;2022-12-29T14:42:31;5.40;;;5.10;;
12038;SDS011;6080;48.818;9.526;2022-12-29T14:47:33;5.10;;;4.90;;
12038;SDS011;6080;48.818;9.526;2022-12-29T14:52:31;4.73;;;4.53;;
12038;SDS011;6080;48.818;9.526;2022-12-29T14:57:39;5.33;;;5.03;;
12038;SDS011;6080;48.818;9.526;2022-12-29T15:00:23;5.13;;;4.83;;
12038;SDS011;6080;48.818;9.526;2022-12-29T15:03:01;5.27;;;4.87;;
12038;SDS011;6080;48.818;9.526;2022-12-29T15:08:20;6.47;;;6.07;;
12038;SDS011;6080;48.818;9.526;2022-12-29T15:10:58;9.30;;;8.73;;
12038;SDS011;6080;48.818;9.526;2022-12-29T15:13:34;10.10;;;9.30;;
12038;SDS011;6080;48.818;9.526;2022-12-29T15:16:04;13.63;;;12.43;;
12038;SDS011;6080;48.818;9.526;2022-12-29T15:18:45;12.30;;;11.30;;
12038;SDS011;6080;48.818;9.526;2022-12-29T15:21:11;12.40;;;11.60;;
12038;SDS011;6080;48.818;9.526;2022-12-29T15:23:39;12.57;;;11.57;;
12038;SDS011;6080;48.818;9.526;2022-12-29T15:26:10;9.33;;;8.73;;
12038;SDS011;6080;48.818;9.526;2022-12-29T15:28:42;9.87;;;9.27;;
12038;SDS011;6080;48.818;9.526;2022-12-29T15:31:20;9.63;;;9.00;;
12038;SDS011;6080;48.818;9.526;2022-12-29T15:33:49;10.60;;;9.93;;
12038;SDS011;6080;48.818;9.526;2022-12-29T15:36:21;13.23;;;12.33;;
12038;SDS011;6080;48.818;9.526;2022-12-29T15:38:48;13.33;;;12.30;;
12038;SDS011;6080;48.818;9.526;2022-12-29T15:41:19;14.10;;;13.17;;
12038;SDS011;6080;48.818;9.526;2022-12-29T15:45:00;14.83;;;13.93;;
12038;SDS011;6080;48.818;9.526;2022-12-29T15:47:20;13.60;;;12.80;;
12038;SDS011;6080;48.818;9.526;2022-12-29T15:49:49;18.30;;;17.30;;
12038;SDS011;6080;48.818;9.526;2022-12-29T15:52:21;18.37;;;17.27;;
12038;SDS011;6080;48.818;9.526;2022-12-29T15:54:49;18.63;;;17.47;;
12038;SDS011;6080;48.818;9.526;2022-12-29T15:57:27;16.93;;;15.93;;
12038;SDS011;6080;48.818;9.526;2022-12-29T15:59:53;18.67;;;17.47;;
12038;SDS011;6080;48.818;9.526;2022-12-29T16:02:20;17.80;;;16.70;;
12038;SDS011;6080;48.818;9.526;2022-12-29T16:04:49;17.20;;;16.17;;
12038;SDS011;6080;48.818;9.526;2022-12-29T16:07:28;17.93;;;16.83;;
12038;SDS011;6080;48.818;9.526;2022-12-29T16:09:59;17.30;;;16.13;;
12038;SDS011;6080;48.818;9.526;2022-12-29T16:12:28;19.13;;;17.93;;
12038;SDS011;6080;48.818;9.526;2022-12-29T16:15:01;17.73;;;16.63;;
12038;SDS011;6080;48.818;9.526;2022-12-29T16:17:37;23.40;;;22.27;;
12038;SDS011;6080;48.818;9.526;2022-12-29T16:22:47;7.47;;;7.07;;
12038;SDS011;6080;48.818;9.526;2022-12-29T16:25:16;7.90;;;7.50;;
12038;SDS011;6080;48.818;9.526;2022-12-29T16:27:47;12.67;;;12.10;;
12038;SDS011;6080;48.818;9.526;2022-12-29T16:32:57;12.43;;;11.87;;
12038;SDS011;6080;48.818;9.526;2022-12-29T16:35:24;6.00;;;5.80;;
12038;SDS011;6080;48.818;9.526;2022-12-29T16:40:52;44.10;;;42.07;;
12038;SDS011;6080;48.818;9.526;2022-12-29T16:43:27;11.43;;;10.93;;
12038;SDS011;6080;48.818;9.526;2022-12-29T16:48:24;6.37;;;6.17;;
12038;SDS011;6080;48.818;9.526;2022-12-29T16:51:03;9.33;;;8.83;;
12038;SDS011;6080;48.818;9.526;2022-12-29T16:53:37;8.60;;;8.20;;
12038;SDS011;6080;48.818;9.526;2022-12-29T16:56:09;11.47;;;10.77;;
12038;SDS011;6080;48.818;9.526;2022-12-29T16:58:39;11.87;;;11.27;;
12038;SDS011;6080;48.818;9.526;2022-12-29T17:01:06;16.53;;;15.13;;
12038;SDS011;6080;48.818;9.526;2022-12-29T17:03:43;15.07;;;14.17;;
12038;SDS011;6080;48.818;9.526;2022-12-29T17:06:18;15.40;;;14.40;;
12038;SDS011;6080;48.818;9.526;2022-12-29T17:08:46;13.07;;;12.47;;
12038;SDS011;6080;48.818;9.526;2022-12-29T17:11:19;20.63;;;19.33;;
12038;SDS011;6080;48.818;9.526;2022-12-29T17:14:28;84.67;;;80.17;;
12038;SDS011;6080;48.818;9.526;2022-12-29T17:17:05;23.67;;;22.17;;
12038;SDS011;6080;48.818;9.526;2022-12-29T17:19:39;20.03;;;18.67;;
12038;SDS011;6080;48.818;9.526;2022-12-29T17:22:31;17.27;;;16.47;;
12038;SDS011;6080;48.818;9.526;2022-12-29T17:24:57;17.43;;;16.57;;
12038;SDS011;6080;48.818;9.526;2022-12-29T17:30:12;10.03;;;9.53;;
12038;SDS011;6080;48.818;9.526;2022-12-29T17:32:40;43.27;;;40.97;;
12038;SDS011;6080;48.818;9.526;2022-12-29T17:35:15;10.30;;;9.67;;
12038;SDS011;6080;48.818;9.526;2022-12-29T17:37:42;5.70;;;5.47;;
12038;SDS011;6080;48.818;9.526;2022-12-29T17:40:12;13.53;;;12.93;;
12038;SDS011;6080;48.818;9.526;2022-12-29T17:42:43;59.43;;;56.37;;
12038;SDS011;6080;48.818;9.526;2022-12-29T17:45:12;86.27;;;81.27;;
12038;SDS011;6080;48.818;9.526;2022-12-29T17:47:48;49.23;;;46.83;;
12038;SDS011;6080;48.818;9.526;2022-12-29T17:50:15;37.43;;;35.53;;
12038;SDS011;6080;48.818;9.526;2022-12-29T17:52:45;26.10;;;24.43;;
12038;SDS011;6080;48.818;9.526;2022-12-29T17:55:18;24.87;;;23.50;;
12038;SDS011;6080;48.818;9.526;2022-12-29T17:57:46;13.63;;;12.63;;
12038;SDS011;6080;48.818;9.526;2022-12-29T18:00:16;13.03;;;12.17;;
12038;SDS011;6080;48.818;9.526;2022-12-29T18:02:47;25.73;;;24.37;;
12038;SDS011;6080;48.818;9.526;2022-12-29T18:05:17;20.00;;;19.00;;
12038;SDS011;6080;48.818;9.526;2022-12-29T18:07:48;19.00;;;17.83;;
12038;SDS011;6080;48.818;9.526;2022-12-29T18:10:16;11.07;;;10.47;;
12038;SDS011;6080;48.818;9.526;2022-12-29T18:12:43;12.27;;;11.47;;
12038;SDS011;6080;48.818;9.526;2022-12-29T18:15:22;11.73;;;11.13;;
12038;SDS011;6080;48.818;9.526;2022-12-29T18:17:57;9.97;;;9.43;;
12038;SDS011;6080;48.818;9.526;2022-12-29T18:20:30;8.80;;;8.30;;
12038;SDS011;6080;48.818;9.526;2022-12-29T18:22:56;11.93;;;11.13;;
12038;SDS011;6080;48.818;9.526;2022-12-29T18:28:05;18.00;;;16.37;;
12038;SDS011;6080;48.818;9.526;2022-12-29T18:30:31;29.63;;;24.33;;
12038;SDS011;6080;48.818;9.526;2022-12-29T18:32:57;17.33;;;15.70;;
12038;SDS011;6080;48.818;9.526;2022-12-29T18:35:39;21.17;;;19.30;;
12038;SDS011;6080;48.818;9.526;2022-12-29T18:38:09;18.10;;;16.40;;
12038;SDS011;6080;48.818;9.526;2022-12-29T18:40:35;16.57;;;15.00;;
12038;SDS011;6080;48.818;9.526;2022-12-29T18:43:01;10.07;;;9.20;;
12038;SDS011;6080;48.818;9.526;2022-12-29T18:45:28;7.33;;;6.83;;
12038;SDS011;6080;48.818;9.526;2022-12-29T18:47:57;13.97;;;13.37;;
12038;SDS011;6080;48.818;9.526;2022-12-29T18:50:23;9.00;;;8.20;;
12038;SDS011;6080;48.818;9.526;2022-12-29T18:52:49;5.57;;;5.07;;
12038;SDS011;6080;48.818;9.526;2022-12-29T18:55:16;6.90;;;6.43;;
12038;SDS011;6080;48.818;9.526;2022-12-29T18:57:47;5.43;;;5.13;;
12038;SDS011;6080;48.818;9.526;2022-12-29T19:00:15;7.47;;;6.80;;
12038;SDS011;6080;48.818;9.526;2022-12-29T19:02:42;8.50;;;5.13;;
12038;SDS011;6080;48.818;9.526;2022-12-29T19:05:20;8.67;;;7.97;;
12038;SDS011;6080;48.818;9.526;2022-12-29T19:07:48;10.63;;;9.63;;
12038;SDS011;6080;48.818;9.526;2022-12-29T19:10:15;11.23;;;10.67;;
12038;SDS011;6080;48.818;9.526;2022-12-29T19:12:41;11.23;;;10.53;;
12038;SDS011;6080;48.818;9.526;2022-12-29T19:15:12;9.50;;;8.97;;
12038;SDS011;6080;48.818;9.526;2022-12-29T19:17:51;9.57;;;9.03;;
12038;SDS011;6080;48.818;9.526;2022-12-29T19:22:58;12.17;;;11.53;;
12038;SDS011;6080;48.818;9.526;2022-12-29T19:25:25;12.83;;;11.93;;
12038;SDS011;6080;48.818;9.526;2022-12-29T19:27:51;18.70;;;17.30;;
12038;SDS011;6080;48.818;9.526;2022-12-29T19:30:18;16.30;;;15.37;;
12038;SDS011;6080;48.818;9.526;2022-12-29T19:32:46;21.70;;;20.17;;
12038;SDS011;6080;48.818;9.526;2022-12-29T19:35:13;22.50;;;20.97;;
12038;SDS011;6080;48.818;9.526;2022-12-29T19:37:40;14.00;;;12.63;;
12038;SDS011;6080;48.818;9.526;2022-12-29T19:40:07;12.90;;;11.90;;
12038;SDS011;6080;48.818;9.526;2022-12-29T19:42:34;13.13;;;12.30;;
12038;SDS011;6080;48.818;9.526;2022-12-29T19:45:01;12.93;;;12.00;;
12038;SDS011;6080;48.818;9.526;2022-12-29T19:47:31;12.87;;;11.70;;
12038;SDS011;6080;48.818;9.526;2022-12-29T19:49:57;11.27;;;10.23;;
12038;SDS011;6080;48.818;9.526;2022-12-29T19:52:24;10.13;;;9.37;;
12038;SDS011;6080;48.818;9.526;2022-12-29T19:54:50;13.70;;;12.73;;
12038;SDS011;6080;48.818;9.526;2022-12-29T19:57:17;11.70;;;10.87;;
12038;SDS011;6080;48.818;9.526;2022-12-29T19:59:43;13.03;;;11.80;;
12038;SDS011;6080;48.818;9.526;2022-12-29T20:02:16;13.37;;;12.53;;
12038;SDS011;6080;48.818;9.526;2022-12-29T20:04:47;19.10;;;17.93;;
12038;SDS011;6080;48.818;9.526;2022-12-29T20:07:13;17.47;;;16.53;;
12038;SDS011;6080;48.818;9.526;2022-12-29T20:09:39;20.73;;;19.67;;
12038;SDS011;6080;48.818;9.526;2022-12-29T20:12:06;18.07;;;17.23;;
12038;SDS011;6080;48.818;9.526;2022-12-29T20:14:32;50.73;;;46.90;;
12038;SDS011;6080;48.818;9.526;2022-12-29T20:16:57;15.90;;;15.00;;
12038;SDS011;6080;48.818;9.526;2022-12-29T20:19:23;8.50;;;7.90;;
12038;SDS011;6080;48.818;9.526;2022-12-29T20:21:49;11.17;;;10.40;;
12038;SDS011;6080;48.818;9.526;2022-12-29T20:24:15;12.17;;;11.47;;
12038;SDS011;6080;48.818;9.526;2022-12-29T20:26:41;22.17;;;20.90;;
12038;SDS011;6080;48.818;9.526;2022-12-29T20:29:06;24.57;;;22.90;;
12038;SDS011;6080;48.818;9.526;2022-12-29T20:31:33;16.17;;;14.93;;
12038;SDS011;6080;48.818;9.526;2022-12-29T20:34:02;16.47;;;15.03;;
12038;SDS011;6080;48.818;9.526;2022-12-29T20:36:30;15.60;;;14.13;;
12038;SDS011;6080;48.818;9.526;2022-12-29T20:38:58;19.10;;;17.60;;
12038;SDS011;6080;48.818;9.526;2022-12-29T20:41:26;43.70;;;40.87;;
12038;SDS011;6080;48.818;9.526;2022-12-29T20:43:55;46.37;;;42.97;;
12038;SDS011;6080;48.818;9.526;2022-12-29T20:46:21;32.53;;;30.03;;
12038;SDS011;6080;48.818;9.526;2022-12-29T20:48:48;29.93;;;27.93;;
12038;SDS011;6080;48.818;9.526;2022-12-29T20:51:14;20.30;;;18.50;;
12038;SDS011;6080;48.818;9.526;2022-12-29T20:53:40;20.77;;;17.13;;
12038;SDS011;6080;48.818;9.526;2022-12-29T20:56:07;18.57;;;17.07;;
12038;SDS011;6080;48.818;9.526;2022-12-29T20:58:36;21.43;;;19.47;;
12038;SDS011;6080;48.818;9.526;2022-12-29T21:01:03;16.23;;;14.97;;
12038;SDS011;6080;48.818;9.526;2022-12-29T21:03:31;16.33;;;14.93;;
12038;SDS011;6080;48.818;9.526;2022-12-29T21:05:57;18.23;;;16.77;;
12038;SDS011;6080;48.818;9.526;2022-12-29T21:08:24;16.50;;;15.13;;
12038;SDS011;6080;48.818;9.526;2022-12-29T21:10:52;14.30;;;13.07;;
12038;SDS011;6080;48.818;9.526;2022-12-29T21:13:18;13.93;;;13.03;;
12038;SDS011;6080;48.818;9.526;2022-12-29T21:15:44;14.40;;;13.40;;
12038;SDS011;6080;48.818;9.526;2022-12-29T21:18:11;47.53;;;43.77;;
12038;SDS011;6080;48.818;9.526;2022-12-29T21:20:40;22.37;;;20.73;;
12038;SDS011;6080;48.818;9.526;2022-12-29T21:23:06;24.17;;;22.53;;
12038;SDS011;6080;48.818;9.526;2022-12-29T21:25:32;20.60;;;19.23;;
12038;SDS011;6080;48.818;9.526;2022-12-29T21:28:02;24.17;;;22.80;;
12038;SDS011;6080;48.818;9.526;2022-12-29T21:30:32;53.07;;;50.07;;
12038;SDS011;6080;48.818;9.526;2022-12-29T21:32:58;86.47;;;81.60;;
12038;SDS011;6080;48.818;9.526;2022-12-29T21:35:24;57.20;;;53.80;;
12038;SDS011;6080;48.818;9.526;2022-12-29T21:37:50;57.13;;;53.77;;
12038;SDS011;6080;48.818;9.526;2022-12-29T21:40:16;92.33;;;86.97;;
12038;SDS011;6080;48.818;9.526;2022-12-29T21:42:41;65.17;;;61.47;;
12038;SDS011;6080;48.818;9.526;2022-12-29T21:45:08;71.50;;;67.60;;
12038;SDS011;6080;48.818;9.526;2022-12-29T21:47:50;53.27;;;50.37;;
12038;SDS011;6080;48.818;9.526;2022-12-29T21:50:36;32.90;;;31.07;;
12038;SDS011;6080;48.818;9.526;2022-12-29T21:53:23;34.83;;;32.60;;
12038;SDS011;6080;48.818;9.526;2022-12-29T21:56:13;30.63;;;28.63;;
12038;SDS011;6080;48.818;9.526;2022-12-29T21:58:42;27.13;;;25.43;;
12038;SDS011;6080;48.818;9.526;2022-12-29T22:01:28;16.43;;;15.13;;
12038;SDS011;6080;48.818;9.526;2022-12-29T22:04:14;30.10;;;28.30;;
12038;SDS011;6080;48.818;9.526;2022-12-29T22:07:00;32.73;;;30.80;;
12038;SDS011;6080;48.818;9.526;2022-12-29T22:09:45;18.83;;;17.83;;
12038;SDS011;6080;48.818;9.526;2022-12-29T22:12:30;19.93;;;18.93;;
12038;SDS011;6080;48.818;9.526;2022-12-29T22:15:15;22.37;;;21.20;;
12038;SDS011;6080;48.818;9.526;2022-12-29T22:17:44;20.10;;;18.90;;
12038;SDS011;6080;48.818;9.526;2022-12-29T22:20:11;18.27;;;17.27;;
12038;SDS011;6080;48.818;9.526;2022-12-29T22:22:37;9.97;;;9.40;;
12038;SDS011;6080;48.818;9.526;2022-12-29T22:25:03;4.67;;;4.37;;
12038;SDS011;6080;48.818;9.526;2022-12-29T22:27:29;7.13;;;6.73;;
12038;SDS011;6080;48.818;9.526;2022-12-29T22:29:55;6.60;;;6.30;;
12038;SDS011;6080;48.818;9.526;2022-12-29T22:32:21;12.50;;;11.93;;
12038;SDS011;6080;48.818;9.526;2022-12-29T22:34:47;15.43;;;14.53;;
12038;SDS011;6080;48.818;9.526;2022-12-29T22:37:13;13.43;;;12.83;;
12038;SDS011;6080;48.818;9.526;2022-12-29T22:39:39;9.10;;;8.67;;
12038;SDS011;6080;48.818;9.526;2022-12-29T22:42:05;10.47;;;9.93;;
12038;SDS011;6080;48.818;9.526;2022-12-29T22:44:31;22.40;;;21.03;;
12038;SDS011;6080;48.818;9.526;2022-12-29T22:46:57;21.23;;;19.93;;
12038;SDS011;6080;48.818;9.526;2022-12-29T22:49:23;21.73;;;20.23;;
12038;SDS011;6080;48.818;9.526;2022-12-29T22:51:49;21.73;;;20.53;;
12038;SDS011;6080;48.818;9.526;2022-12-29T22:54:15;12.13;;;11.47;;
12038;SDS011;6080;48.818;9.526;2022-12-29T22:56:42;6.57;;;6.17;;
12038;SDS011;6080;48.818;9.526;2022-12-29T22:59:12;7.13;;;6.33;;
12038;SDS011;6080;48.818;9.526;2022-12-29T23:01:39;7.13;;;6.63;;
12038;SDS011;6080;48.818;9.526;2022-12-29T23:04:05;16.63;;;15.13;;
12038;SDS011;6080;48.818;9.526;2022-12-29T23:06:32;10.10;;;9.10;;
12038;SDS011;6080;48.818;9.526;2022-12-29T23:08:59;9.80;;;8.93;;
12038;SDS011;6080;48.818;9.526;2022-12-29T23:11:26;8.23;;;7.60;;
12038;SDS011;6080;48.818;9.526;2022-12-29T23:13:53;8.63;;;7.80;;
12038;SDS011;6080;48.818;9.526;2022-12-29T23:16:19;9.17;;;8.40;;
12038;SDS011;6080;48.818;9.526;2022-12-29T23:18:45;10.80;;;10.20;;
12038;SDS011;6080;48.818;9.526;2022-12-29T23:21:13;8.00;;;7.60;;
12038;SDS011;6080;48.818;9.526;2022-12-29T23:23:40;7.13;;;6.93;;
12038;SDS011;6080;48.818;9.526;2022-12-29T23:26:25;8.13;;;7.73;;
12038;SDS011;6080;48.818;9.526;2022-12-29T23:28:54;8.13;;;7.80;;
12038;SDS011;6080;48.818;9.526;2022-12-29T23:31:21;6.93;;;6.73;;
12038;SDS011;6080;48.818;9.526;2022-12-29T23:33:49;8.43;;;8.03;;
12038;SDS011;6080;48.818;9.526;2022-12-29T23:36:16;10.40;;;9.97;;
12038;SDS011;6080;48.818;9.526;2022-12-29T23:38:42;10.77;;;10.27;;
12038;SDS011;6080;48.818;9.526;2022-12-29T23:41:08;12.60;;;12.00;;
12038;SDS011;6080;48.818;9.526;2022-12-29T23:43:35;13.20;;;12.60;;
12038;SDS011;6080;48.818;9.526;2022-12-29T23:46:04;94.00;;;89.03;;
12038;SDS011;6080;48.818;9.526;2022-12-29T23:48:33;15.03;;;14.33;;
12038;SDS011;6080;48.818;9.526;2022-12-29T23:51:00;19.40;;;18.43;;
12038;SDS011;6080;48.818;9.526;2022-12-29T23:53:26;21.17;;;20.10;;
12038;SDS011;6080;48.818;9.526;2022-12-29T23:55:52;19.17;;;18.33;;
12038;SDS011;6080;48.818;9.526;2022-12-29T23:58:19;15.83;;;15.00;;
